Time;durP1;ratioP1;P1;durP2;ratioP2;P2;SDS_P1;SDS_P2;PMS_P1;PMS_P2;Temp;Humidity;BMP_temperature;BMP_pressure;BME280_temperature;BME280_humidity;BME280_pressure;Samples;Min_cycle;Max_cycle;Signal;HPM_P1;HPM_P2
2021/08/21 00:01:57;;;;;;;0.00;0.00;;;19.50;75.20;;;;;;4919197;29;20455;-90
2021/08/21 00:04:23;;;;;;;0.00;0.00;;;19.40;75.20;;;;;;4923144;29;20028;-89
2021/08/21 00:06:48;;;;;;;0.00;0.00;;;19.40;75.30;;;;;;4919679;29;20482;-88
2021/08/21 00:09:15;;;;;;;0.00;0.00;;;19.40;75.40;;;;;;4923087;29;20039;-89
2021/08/21 00:11:40;;;;;;;0.10;0.10;;;19.50;75.60;;;;;;4921139;29;20123;-88
2021/08/21 00:14:06;;;;;;;0.05;0.05;;;19.40;75.60;;;;;;4921307;29;20069;-86
2021/08/21 00:16:33;;;;;;;0.00;0.00;;;19.40;75.80;;;;;;4919158;29;20127;-88
2021/08/21 00:19:00;;;;;;;0.00;0.00;;;19.30;75.80;;;;;;4920293;29;20035;-89
2021/08/21 00:21:26;;;;;;;0.00;0.00;;;19.40;76.00;;;;;;4918116;29;20040;-88
2021/08/21 00:23:52;;;;;;;0.00;0.00;;;19.30;76.00;;;;;;4918899;29;20059;-87
2021/08/21 00:26:18;;;;;;;0.10;0.10;;;19.30;76.10;;;;;;4920594;29;20036;-88
2021/08/21 00:28:43;;;;;;;0.00;0.00;;;19.30;76.20;;;;;;4918195;29;20032;-87
2021/08/21 00:31:09;;;;;;;0.00;0.00;;;19.30;76.20;;;;;;4920198;29;20059;-88
2021/08/21 00:33:35;;;;;;;0.10;0.10;;;19.20;76.40;;;;;;4918687;29;20040;-88
2021/08/21 00:36:00;;;;;;;0.00;0.00;;;19.20;76.50;;;;;;4918861;29;20434;-88
2021/08/21 00:38:26;;;;;;;0.00;0.00;;;19.10;76.40;;;;;;4962851;23;20144;-87
2021/08/21 00:40:53;;;;;;;0.00;0.00;;;19.10;76.60;;;;;;4918170;29;20451;-90
2021/08/21 00:43:20;;;;;;;0.10;0.10;;;19.10;76.70;;;;;;4916717;29;20044;-88
2021/08/21 00:45:46;;;;;;;0.00;0.00;;;19.10;76.70;;;;;;4916650;29;20123;-89
2021/08/21 00:48:12;;;;;;;0.00;0.00;;;19.10;76.70;;;;;;4916530;29;20035;-85
2021/08/21 00:50:38;;;;;;;0.00;0.00;;;19.10;76.90;;;;;;4916965;29;20036;-87
2021/08/21 00:53:03;;;;;;;0.00;0.00;;;19.00;77.00;;;;;;4916353;29;20020;-87
2021/08/21 00:55:30;;;;;;;0.00;0.00;;;19.00;77.00;;;;;;4916517;29;20032;-88
2021/08/21 00:57:55;;;;;;;0.00;0.00;;;19.00;77.10;;;;;;4916449;29;20046;-87
2021/08/21 01:00:23;;;;;;;0.00;0.00;;;19.00;77.20;;;;;;4916702;29;20474;-86
2021/08/21 01:02:48;;;;;;;0.00;0.00;;;18.90;77.30;;;;;;4916333;29;20075;-87
2021/08/21 01:05:16;;;;;;;0.00;0.00;;;18.90;77.50;;;;;;4916609;29;20111;-87
2021/08/21 01:07:42;;;;;;;0.00;0.00;;;18.90;77.70;;;;;;4916542;29;20054;-87
2021/08/21 01:10:11;;;;;;;0.00;0.00;;;18.90;77.80;;;;;;4916674;29;20386;-87
2021/08/21 01:12:37;;;;;;;0.10;0.10;;;18.80;77.80;;;;;;4916190;29;20032;-88
2021/08/21 01:15:04;;;;;;;0.00;0.00;;;18.80;77.90;;;;;;4916476;29;20067;-89
2021/08/21 01:17:30;;;;;;;0.00;0.00;;;18.80;78.20;;;;;;4916171;29;20036;-86
2021/08/21 01:19:55;;;;;;;0.00;0.00;;;18.80;78.50;;;;;;4916310;29;20099;-87
2021/08/21 01:22:25;;;;;;;0.00;0.00;;;18.70;78.60;;;;;;4916025;29;20095;-87
2021/08/21 01:24:53;;;;;;;0.08;0.08;;;18.70;78.90;;;;;;4916130;29;20024;-87
2021/08/21 01:27:21;;;;;;;0.00;0.00;;;18.70;79.20;;;;;;4917204;29;20039;-87
2021/08/21 01:29:48;;;;;;;0.10;0.10;;;18.70;79.40;;;;;;4916450;29;20038;-89
2021/08/21 01:32:15;;;;;;;0.10;0.10;;;18.70;79.70;;;;;;4915789;29;20050;-87
2021/08/21 01:34:42;;;;;;;0.00;0.00;;;18.60;79.90;;;;;;4917448;29;20064;-86
2021/08/21 01:37:07;;;;;;;0.03;0.03;;;18.60;80.20;;;;;;4915920;29;20033;-86
2021/08/21 01:39:33;;;;;;;0.00;0.00;;;18.60;80.50;;;;;;4917435;29;20049;-88
2021/08/21 01:41:59;;;;;;;0.00;0.00;;;18.50;80.60;;;;;;4917097;29;20041;-88
2021/08/21 01:44:25;;;;;;;0.00;0.00;;;18.50;80.80;;;;;;4917581;29;20032;-88
2021/08/21 01:46:51;;;;;;;0.00;0.00;;;18.50;80.90;;;;;;4917283;29;20032;-87
2021/08/21 01:49:22;;;;;;;0.00;0.00;;;18.50;81.20;;;;;;4917352;29;20032;-86
2021/08/21 01:51:49;;;;;;;0.00;0.00;;;18.50;81.20;;;;;;4916163;29;20051;-88
2021/08/21 01:54:25;;;;;;;0.00;0.00;;;18.40;81.90;;;;;;4916014;29;20036;-87
2021/08/21 01:56:54;;;;;;;0.08;0.08;;;18.40;82.30;;;;;;4915967;29;20498;-87
2021/08/21 01:59:30;;;;;;;0.00;0.00;;;18.40;82.40;;;;;;4915910;29;20028;-88
2021/08/21 02:01:56;;;;;;;0.00;0.00;;;18.40;82.60;;;;;;4916282;29;20044;-88
2021/08/21 02:04:22;;;;;;;0.10;0.10;;;18.30;82.80;;;;;;4915922;29;20385;-88
2021/08/21 02:06:49;;;;;;;0.10;0.10;;;18.30;83.00;;;;;;4916044;29;20122;-88
2021/08/21 02:09:16;;;;;;;0.00;0.00;;;18.30;83.50;;;;;;4916122;29;20024;-87
2021/08/21 02:11:43;;;;;;;0.10;0.10;;;18.30;83.90;;;;;;4916067;29;20033;-88
2021/08/21 02:14:09;;;;;;;0.00;0.00;;;18.30;84.00;;;;;;4916889;29;20427;-89
2021/08/21 02:16:35;;;;;;;0.00;0.00;;;18.30;84.30;;;;;;4915895;29;20028;-87
2021/08/21 02:19:01;;;;;;;0.10;0.10;;;18.30;84.50;;;;;;4916895;29;20060;-92
2021/08/21 02:21:27;;;;;;;0.00;0.00;;;18.20;84.60;;;;;;4915670;29;20075;-85
2021/08/21 02:23:57;;;;;;;0.10;0.10;;;18.30;84.80;;;;;;4915569;29;20047;-88
2021/08/21 02:26:23;;;;;;;0.10;0.10;;;18.20;84.90;;;;;;4915932;29;20120;-90
2021/08/21 02:28:48;;;;;;;0.03;0.03;;;18.20;85.10;;;;;;4916950;29;20541;-88
2021/08/21 02:31:14;;;;;;;0.00;0.00;;;18.30;85.20;;;;;;4915660;29;20076;-88
2021/08/21 02:33:40;;;;;;;0.00;0.00;;;18.30;85.40;;;;;;4915438;29;20032;-91
2021/08/21 02:36:06;;;;;;;0.10;0.10;;;18.30;86.00;;;;;;4915581;29;20071;-88
2021/08/21 02:38:32;;;;;;;0.00;0.00;;;18.20;85.40;;;;;;4916931;29;20036;-90
2021/08/21 02:40:57;;;;;;;0.00;0.00;;;18.20;85.70;;;;;;4916007;29;20065;-88
2021/08/21 02:43:23;;;;;;;0.00;0.00;;;18.20;85.90;;;;;;4917581;29;20074;-88
2021/08/21 02:45:49;;;;;;;0.10;0.10;;;18.20;86.10;;;;;;4918865;29;20032;-87
2021/08/21 02:48:16;;;;;;;0.00;0.00;;;18.20;86.20;;;;;;4918770;29;20035;-91
2021/08/21 02:50:42;;;;;;;0.00;0.00;;;18.20;86.20;;;;;;4919166;29;20054;-88
2021/08/21 02:53:07;;;;;;;0.10;0.10;;;18.20;86.60;;;;;;4918590;29;20068;-87
2021/08/21 02:55:33;;;;;;;0.00;0.00;;;18.10;86.80;;;;;;4918832;29;20502;-89
2021/08/21 02:57:59;;;;;;;0.00;0.00;;;18.10;87.10;;;;;;4918674;29;20028;-88
2021/08/21 03:00:25;;;;;;;0.00;0.00;;;18.10;87.30;;;;;;4918461;29;20032;-87
2021/08/21 03:02:50;;;;;;;0.00;0.00;;;18.10;87.50;;;;;;4918352;29;20032;-87
2021/08/21 03:05:16;;;;;;;0.00;0.00;;;18.10;87.80;;;;;;4918722;29;20020;-86
2021/08/21 03:07:42;;;;;;;0.00;0.00;;;18.10;88.00;;;;;;4918397;29;20032;-88
2021/08/21 03:10:08;;;;;;;0.00;0.00;;;18.10;88.00;;;;;;4918674;29;20032;-87
2021/08/21 03:12:34;;;;;;;0.00;0.00;;;18.00;88.20;;;;;;4918557;29;20036;-87
2021/08/21 03:15:00;;;;;;;0.10;0.10;;;18.00;88.40;;;;;;4918434;29;20028;-87
2021/08/21 03:17:26;;;;;;;0.08;0.08;;;18.00;88.60;;;;;;4918257;29;20040;-88
2021/08/21 03:19:52;;;;;;;0.00;0.00;;;18.10;88.70;;;;;;4918339;29;20474;-89
2021/08/21 03:22:18;;;;;;;0.00;0.00;;;18.10;88.90;;;;;;4918173;29;20054;-87
2021/08/21 03:24:44;;;;;;;0.10;0.10;;;18.10;88.90;;;;;;4919142;29;20456;-87
2021/08/21 03:27:10;;;;;;;0.10;0.10;;;18.10;89.00;;;;;;4918176;29;20024;-88
2021/08/21 03:29:36;;;;;;;0.00;0.00;;;18.10;89.00;;;;;;4918351;29;20087;-88
2021/08/21 03:32:02;;;;;;;0.00;0.00;;;18.20;89.10;;;;;;4919272;29;20032;-89
2021/08/21 03:34:28;;;;;;;0.00;0.00;;;18.20;89.40;;;;;;4916283;29;20549;-88
2021/08/21 03:36:54;;;;;;;0.10;0.10;;;18.20;89.40;;;;;;4916560;29;20121;-87
2021/08/21 03:39:20;;;;;;;0.00;0.00;;;18.30;89.20;;;;;;4917904;29;20032;-87
2021/08/21 03:41:47;;;;;;;0.00;0.00;;;18.30;89.20;;;;;;4916581;29;20119;-86
2021/08/21 03:44:13;;;;;;;0.00;0.00;;;18.30;89.10;;;;;;4917565;29;20035;-88
2021/08/21 03:46:38;;;;;;;0.00;0.00;;;18.40;89.10;;;;;;4916539;29;20032;-87
2021/08/21 03:49:05;;;;;;;0.00;0.00;;;18.40;89.10;;;;;;4917996;29;20036;-87
2021/08/21 03:51:33;;;;;;;0.00;0.00;;;18.40;89.10;;;;;;4916733;29;20087;-90
2021/08/21 03:53:59;;;;;;;0.00;0.00;;;18.50;88.90;;;;;;4916616;29;20123;-88
2021/08/21 03:56:25;;;;;;;0.10;0.10;;;18.60;89.00;;;;;;4917682;29;20103;-91
2021/08/21 03:58:50;;;;;;;0.03;0.03;;;18.70;88.80;;;;;;4916518;29;20116;-88
2021/08/21 04:01:16;;;;;;;0.00;0.00;;;18.70;88.40;;;;;;4917654;29;20048;-90
2021/08/21 04:03:42;;;;;;;0.10;0.10;;;18.80;88.10;;;;;;4916216;29;20043;-88
2021/08/21 04:06:08;;;;;;;0.00;0.00;;;18.90;87.70;;;;;;4916098;29;20035;-90
2021/08/21 04:08:34;;;;;;;0.00;0.00;;;18.90;87.40;;;;;;4917656;29;20028;-90
2021/08/21 04:10:59;;;;;;;0.00;0.00;;;19.00;87.20;;;;;;4917285;29;20028;-89
2021/08/21 04:13:27;;;;;;;0.00;0.00;;;19.10;86.80;;;;;;4917668;29;20036;-88
2021/08/21 04:15:58;;;;;;;0.00;0.00;;;19.20;86.40;;;;;;4916508;29;20043;-91
2021/08/21 04:18:24;;;;;;;0.08;0.08;;;19.20;86.20;;;;;;4915814;29;20562;-91
2021/08/21 04:20:50;;;;;;;0.10;0.10;;;19.30;86.60;;;;;;4915637;29;20135;-89
2021/08/21 04:23:15;;;;;;;0.00;0.00;;;19.40;85.60;;;;;;4915190;29;20032;-90
2021/08/21 04:25:41;;;;;;;0.00;0.00;;;19.50;85.30;;;;;;4918121;29;20038;-88
2021/08/21 04:28:07;;;;;;;0.00;0.00;;;19.60;85.10;;;;;;4915658;29;20060;-89
2021/08/21 04:30:33;;;;;;;0.10;0.10;;;19.70;84.40;;;;;;4916756;29;20120;-90
2021/08/21 04:32:59;;;;;;;0.00;0.00;;;19.70;84.00;;;;;;4918144;29;20116;-90
2021/08/21 04:35:24;;;;;;;0.00;0.00;;;19.80;83.90;;;;;;4917599;29;20032;-90
2021/08/21 04:37:50;;;;;;;0.00;0.00;;;19.90;83.50;;;;;;4917382;29;20036;-89
2021/08/21 04:40:25;;;;;;;0.00;0.00;;;20.00;83.30;;;;;;4919054;29;20035;-91
2021/08/21 04:42:50;;;;;;;0.00;0.00;;;20.10;82.70;;;;;;4918071;29;20048;-87
2021/08/21 04:45:16;;;;;;;0.00;0.00;;;20.20;82.30;;;;;;4920689;29;20031;-91
2021/08/21 04:47:42;;;;;;;0.00;0.00;;;20.30;81.80;;;;;;4915527;29;20032;-89
2021/08/21 04:50:08;;;;;;;0.00;0.00;;;20.30;81.40;;;;;;4915731;29;20112;-89
2021/08/21 04:52:33;;;;;;;0.00;0.00;;;20.40;81.40;;;;;;4914662;29;20083;-91
2021/08/21 04:54:59;;;;;;;0.00;0.00;;;20.50;81.30;;;;;;4916157;29;20043;-91
2021/08/21 04:57:25;;;;;;;0.00;0.00;;;20.60;81.10;;;;;;4915648;29;20111;-88
2021/08/21 04:59:51;;;;;;;0.00;0.00;;;20.70;80.50;;;;;;4919364;29;20038;-92
2021/08/21 05:02:19;;;;;;;0.00;0.00;;;20.90;80.40;;;;;;4916587;29;20068;-92
2021/08/21 05:04:47;;;;;;;0.00;0.00;;;21.20;80.30;;;;;;4918735;29;20602;-90
2021/08/21 05:07:13;;;;;;;0.10;0.10;;;21.40;80.40;;;;;;4919803;29;20440;-91
2021/08/21 05:09:39;;;;;;;0.00;0.00;;;21.80;79.70;;;;;;4915957;29;20051;-89
2021/08/21 05:12:36;;;;;;;0.00;0.00;;;22.30;79.30;;;;;;4903853;29;20020;-90
2021/08/21 05:15:07;;;;;;;0.00;0.00;;;22.80;76.10;;;;;;4908159;29;20044;-90
2021/08/21 05:20:27;;;;;;;0.00;0.00;;;23.50;74.40;;;;;;4942606;23;20127;-91
2021/08/21 05:23:14;;;;;;;0.00;0.00;;;24.00;73.30;;;;;;4900382;29;20470;-92
2021/08/21 05:26:15;;;;;;;0.00;0.00;;;24.40;72.20;;;;;;4900103;29;20453;-92
2021/08/21 05:28:41;;;;;;;0.00;0.00;;;24.90;71.10;;;;;;4864911;29;20048;-89
2021/08/21 05:31:07;;;;;;;0.15;0.00;;;25.10;69.80;;;;;;4866078;29;20386;-90
2021/08/21 05:36:05;;;;;;;0.00;0.00;;;25.70;68.30;;;;;;4917974;23;20059;-89
2021/08/21 05:38:31;;;;;;;0.00;0.00;;;26.10;68.10;;;;;;4918728;29;20518;-89
2021/08/21 05:40:57;;;;;;;0.00;0.00;;;26.40;67.30;;;;;;4920475;29;20079;-91
2021/08/21 05:43:25;;;;;;;0.00;0.00;;;26.70;66.40;;;;;;4917887;29;20095;-91
2021/08/21 05:45:51;;;;;;;0.00;0.00;;;26.90;65.10;;;;;;4917869;29;20090;-87
2021/08/21 05:48:16;;;;;;;0.00;0.00;;;27.10;64.90;;;;;;4919178;29;20024;-91
2021/08/21 05:50:42;;;;;;;0.00;0.00;;;27.40;64.30;;;;;;4916496;29;20119;-91
2021/08/21 05:53:09;;;;;;;0.00;0.00;;;27.70;63.70;;;;;;4924161;23;20044;-91
2021/08/21 05:55:35;;;;;;;0.00;0.00;;;27.90;63.10;;;;;;4916858;29;20032;-91
2021/08/21 05:58:01;;;;;;;0.00;0.00;;;28.30;62.70;;;;;;4950942;23;20040;-89
2021/08/21 06:00:26;;;;;;;0.00;0.00;;;28.60;61.80;;;;;;4918367;29;20390;-91
2021/08/21 06:02:54;;;;;;;0.00;0.00;;;28.80;61.20;;;;;;4916437;29;20188;-92
2021/08/21 06:05:49;;;;;;;0.00;0.00;;;28.90;60.60;;;;;;4917351;29;20557;-92
2021/08/21 06:08:14;;;;;;;0.00;0.00;;;29.30;59.50;;;;;;4949416;23;20044;-91
2021/08/21 06:11:08;;;;;;;0.00;0.00;;;29.50;59.50;;;;;;4916654;29;20032;-91
2021/08/21 06:13:34;;;;;;;0.00;0.00;;;29.70;59.30;;;;;;4917123;29;20042;-92
2021/08/21 06:16:00;;;;;;;0.00;0.00;;;30.00;57.90;;;;;;4916473;29;20127;-86
2021/08/21 06:18:25;;;;;;;0.00;0.00;;;30.00;57.50;;;;;;4936246;29;20044;-89
2021/08/21 06:20:51;;;;;;;0.00;0.00;;;30.20;57.60;;;;;;4944662;29;20027;-87
2021/08/21 06:23:43;;;;;;;0.00;0.00;;;30.50;57.20;;;;;;4944082;29;20056;-88
2021/08/21 06:26:24;;;;;;;0.00;0.00;;;30.80;56.30;;;;;;4928008;29;20036;-90
2021/08/21 06:28:52;;;;;;;0.00;0.00;;;31.00;55.10;;;;;;4922288;29;20032;-90
2021/08/21 06:31:52;;;;;;;0.00;0.00;;;31.30;55.80;;;;;;4922478;29;20036;-90
2021/08/21 06:34:18;;;;;;;0.00;0.00;;;31.70;54.60;;;;;;4920954;29;20083;-88
2021/08/21 06:36:46;;;;;;;0.00;0.00;;;32.10;54.70;;;;;;4920648;29;20027;-86
2021/08/21 06:39:12;;;;;;;0.00;0.00;;;32.10;54.10;;;;;;4921740;29;20080;-89
2021/08/21 06:41:38;;;;;;;0.00;0.00;;;32.30;53.90;;;;;;4922197;29;20397;-90
2021/08/21 06:44:04;;;;;;;0.00;0.00;;;32.30;53.10;;;;;;4920936;29;20058;-86
2021/08/21 06:46:30;;;;;;;0.00;0.00;;;32.20;52.60;;;;;;4920976;29;20143;-90
2021/08/21 06:48:56;;;;;;;0.00;0.00;;;32.00;52.60;;;;;;4942106;23;20044;-88
2021/08/21 06:51:22;;;;;;;0.00;0.00;;;32.10;52.90;;;;;;4919109;29;20096;-87
2021/08/21 06:53:47;;;;;;;0.00;0.00;;;32.20;52.80;;;;;;4918704;29;20390;-87
2021/08/21 06:56:16;;;;;;;0.00;0.00;;;32.50;52.70;;;;;;4918808;29;20501;-87
2021/08/21 06:58:42;;;;;;;0.00;0.00;;;32.80;52.30;;;;;;4918643;29;20036;-87
2021/08/21 07:01:11;;;;;;;0.00;0.00;;;33.30;51.60;;;;;;4918671;29;20052;-86
2021/08/21 07:03:37;;;;;;;0.00;0.00;;;33.60;51.10;;;;;;4919980;29;20042;-89
2021/08/21 07:06:03;;;;;;;0.00;0.00;;;33.70;50.70;;;;;;4918401;29;20036;-90
2021/08/21 07:08:29;;;;;;;0.00;0.00;;;34.00;50.30;;;;;;4918507;29;20031;-87
2021/08/21 07:10:55;;;;;;;0.00;0.00;;;34.20;49.90;;;;;;4918525;29;20064;-86
2021/08/21 07:13:20;;;;;;;0.00;0.00;;;34.40;49.70;;;;;;4918329;29;20084;-88
2021/08/21 07:15:47;;;;;;;0.00;0.00;;;34.70;49.40;;;;;;4918980;29;20398;-88
2021/08/21 07:18:13;;;;;;;0.00;0.00;;;34.90;48.90;;;;;;4918262;29;20032;-87
2021/08/21 07:20:38;;;;;;;0.00;0.00;;;35.00;48.90;;;;;;4918402;29;20036;-87
2021/08/21 07:23:04;;;;;;;0.10;0.10;;;35.20;48.60;;;;;;4918184;29;20044;-87
2021/08/21 07:25:30;;;;;;;0.03;0.03;;;35.50;47.70;;;;;;4921104;29;20040;-87
2021/08/21 07:27:56;;;;;;;0.00;0.00;;;35.70;47.20;;;;;;4942549;29;20068;-88
2021/08/21 07:30:22;;;;;;;0.00;0.00;;;35.90;47.00;;;;;;4943047;29;20024;-88
2021/08/21 07:32:47;;;;;;;0.00;0.00;;;36.40;46.60;;;;;;4942749;29;20080;-87
2021/08/21 07:35:13;;;;;;;0.10;0.10;;;36.80;46.20;;;;;;4921882;29;20040;-86
2021/08/21 07:37:39;;;;;;;0.00;0.00;;;37.20;45.40;;;;;;4918103;29;20047;-87
2021/08/21 07:40:07;;;;;;;0.10;0.10;;;37.30;44.80;;;;;;4930404;23;20052;-90
2021/08/21 07:42:32;;;;;;;0.00;0.00;;;37.20;44.40;;;;;;4918310;29;20043;-90
2021/08/21 07:45:08;;;;;;;0.10;0.10;;;36.90;44.80;;;;;;4918631;29;20032;-91
2021/08/21 07:47:39;;;;;;;0.00;0.00;;;36.90;44.50;;;;;;4919094;29;20406;-91
2021/08/21 07:50:08;;;;;;;0.10;0.10;;;37.00;44.40;;;;;;4919502;29;20031;-90
2021/08/21 07:52:34;;;;;;;0.10;0.10;;;37.10;43.90;;;;;;4918686;29;20032;-88
2021/08/21 07:55:00;;;;;;;0.00;0.00;;;37.10;43.40;;;;;;4918310;29;20020;-86
2021/08/21 07:57:25;;;;;;;0.00;0.00;;;37.10;44.00;;;;;;4920382;29;20064;-86
2021/08/21 07:59:51;;;;;;;0.00;0.00;;;36.90;43.10;;;;;;4919903;29;20028;-88
2021/08/21 08:02:17;;;;;;;0.08;0.08;;;36.80;43.40;;;;;;4917440;29;20028;-90
2021/08/21 08:04:43;;;;;;;0.05;0.05;;;37.00;43.50;;;;;;4918810;29;20031;-92
2021/08/21 08:07:08;;;;;;;0.00;0.00;;;37.40;43.30;;;;;;4917785;29;20034;-87
2021/08/21 08:09:34;;;;;;;0.10;0.10;;;37.60;43.20;;;;;;4918081;29;20048;-84
2021/08/21 08:12:00;;;;;;;0.00;0.00;;;37.80;43.10;;;;;;4917729;29;20482;-90
2021/08/21 08:14:25;;;;;;;0.00;0.00;;;38.10;42.90;;;;;;4917813;29;20426;-87
2021/08/21 08:16:51;;;;;;;0.10;0.10;;;38.10;42.30;;;;;;4917826;29;20115;-88
2021/08/21 08:19:17;;;;;;;0.10;0.10;;;38.20;42.50;;;;;;4917738;29;20363;-88
2021/08/21 08:21:53;;;;;;;0.10;0.10;;;38.50;42.20;;;;;;4919047;29;20021;-90
2021/08/21 08:24:23;;;;;;;0.10;0.10;;;38.70;41.90;;;;;;4918213;29;20040;-91
2021/08/21 08:26:49;;;;;;;0.00;0.00;;;38.90;41.10;;;;;;4917575;29;20042;-89
2021/08/21 08:29:15;;;;;;;0.10;0.10;;;38.90;41.20;;;;;;4918373;29;20032;-87
2021/08/21 08:31:41;;;;;;;0.10;0.10;;;39.10;41.00;;;;;;4918465;29;20035;-86
2021/08/21 08:34:07;;;;;;;0.00;0.00;;;39.30;40.80;;;;;;4916971;29;20032;-90
2021/08/21 08:36:36;;;;;;;0.00;0.00;;;39.50;40.40;;;;;;4917792;29;20035;-90
2021/08/21 08:39:02;;;;;;;0.10;0.10;;;39.30;40.30;;;;;;4918345;29;20107;-90
2021/08/21 08:41:32;;;;;;;0.10;0.10;;;38.80;40.40;;;;;;4917509;29;20445;-89
2021/08/21 08:44:18;;;;;;;0.10;0.10;;;38.80;40.90;;;;;;4917184;29;20399;-91
2021/08/21 08:46:52;;;;;;;0.10;0.10;;;39.00;40.80;;;;;;4917590;29;20434;-91
2021/08/21 08:49:19;;;;;;;0.10;0.10;;;39.60;40.90;;;;;;4920306;29;20031;-92
2021/08/21 08:51:45;;;;;;;0.03;0.03;;;40.20;40.50;;;;;;4920073;29;20042;-87
2021/08/21 08:54:11;;;;;;;0.10;0.10;;;40.30;39.70;;;;;;4915889;29;20466;-88
2021/08/21 08:56:37;;;;;;;0.10;0.10;;;39.60;39.20;;;;;;4916273;29;20075;-90
2021/08/21 08:59:02;;;;;;;0.10;0.10;;;39.00;39.60;;;;;;4915292;29;20032;-90
2021/08/21 09:01:28;;;;;;;0.00;0.00;;;39.00;40.20;;;;;;4914850;29;20032;-90
2021/08/21 09:04:17;;;;;;;0.00;0.00;;;39.20;40.00;;;;;;4914833;29;20035;-91
2021/08/21 09:06:43;;;;;;;0.05;0.05;;;38.60;39.70;;;;;;4915581;29;20034;-90
2021/08/21 09:09:18;;;;;;;0.00;0.00;;;38.30;40.80;;;;;;4914804;29;20549;-92
2021/08/21 09:11:53;;;;;;;0.05;0.05;;;38.10;40.70;;;;;;4917191;29;20048;-88
2021/08/21 09:14:29;;;;;;;0.00;0.00;;;37.40;41.00;;;;;;4916831;29;20033;-90
2021/08/21 09:17:17;;;;;;;0.00;0.00;;;36.60;41.60;;;;;;4916804;29;20198;-91
2021/08/21 09:19:45;;;;;;;0.00;0.00;;;35.80;41.90;;;;;;4916432;29;20075;-89
2021/08/21 09:22:12;;;;;;;0.00;0.00;;;35.20;42.50;;;;;;4916664;29;20450;-89
2021/08/21 09:24:42;;;;;;;0.00;0.00;;;34.60;42.90;;;;;;4916913;29;20036;-90
2021/08/21 09:27:23;;;;;;;0.00;0.00;;;34.30;44.10;;;;;;4922564;29;20052;-90
2021/08/21 09:30:13;;;;;;;0.00;0.00;;;34.10;44.00;;;;;;4935274;29;20032;-87
2021/08/21 09:32:40;;;;;;;0.00;0.00;;;34.10;44.60;;;;;;4923916;29;20441;-91
2021/08/21 09:35:08;;;;;;;0.00;0.00;;;34.60;44.70;;;;;;4917760;29;20044;-90
2021/08/21 09:37:57;;;;;;;0.00;0.00;;;34.70;43.80;;;;;;4916578;29;20036;-88
2021/08/21 09:40:36;;;;;;;0.00;0.00;;;34.20;43.40;;;;;;4918021;29;20040;-89
2021/08/21 09:43:03;;;;;;;0.00;0.00;;;33.80;43.90;;;;;;4917657;29;20131;-91
2021/08/21 09:45:30;;;;;;;0.00;0.00;;;33.60;44.10;;;;;;4916081;29;20024;-91
2021/08/21 09:48:05;;;;;;;0.00;0.00;;;33.70;44.30;;;;;;4916262;29;20060;-88
2021/08/21 09:50:35;;;;;;;0.03;0.03;;;34.20;44.40;;;;;;4916012;29;20487;-88
2021/08/21 09:53:12;;;;;;;0.00;0.00;;;35.40;44.30;;;;;;4919401;29;20071;-92
2021/08/21 09:55:39;;;;;;;0.08;0.08;;;36.40;43.20;;;;;;4920175;29;20041;-91
2021/08/21 09:58:15;;;;;;;0.00;0.00;;;37.00;42.50;;;;;;4921447;29;20040;-88
2021/08/21 10:00:59;;;;;;;0.00;0.00;;;36.90;41.80;;;;;;4921241;29;20188;-91
2021/08/21 10:03:28;;;;;;;0.00;0.00;;;36.00;41.60;;;;;;4921249;29;20409;-91
2021/08/21 10:05:54;;;;;;;0.00;0.00;;;35.50;42.80;;;;;;4920031;29;20075;-91
2021/08/21 10:08:25;;;;;;;0.00;0.00;;;35.50;42.70;;;;;;4920162;29;20123;-90
2021/08/21 10:10:53;;;;;;;0.00;0.00;;;35.40;42.60;;;;;;4920057;29;20059;-90
2021/08/21 10:13:28;;;;;;;0.10;0.10;;;34.90;42.70;;;;;;4921745;29;20051;-90
2021/08/21 10:15:55;;;;;;;0.03;0.03;;;34.90;43.50;;;;;;4919957;29;20036;-92
2021/08/21 10:18:22;;;;;;;0.00;0.00;;;35.70;42.60;;;;;;4921753;29;20032;-91
2021/08/21 10:20:48;;;;;;;0.10;0.10;;;36.30;42.00;;;;;;4920115;29;20055;-89
2021/08/21 10:23:16;;;;;;;0.00;0.00;;;37.00;41.30;;;;;;4919679;29;20553;-87
2021/08/21 10:25:53;;;;;;;0.05;0.05;;;37.80;41.00;;;;;;4921521;29;20028;-88
2021/08/21 10:28:21;;;;;;;0.00;0.00;;;38.00;40.00;;;;;;4919699;29;20043;-90
2021/08/21 10:30:49;;;;;;;0.00;0.00;;;37.50;39.50;;;;;;4919632;29;20050;-88
2021/08/21 10:33:21;;;;;;;0.00;0.00;;;36.80;40.00;;;;;;4919734;29;20047;-92
2021/08/21 10:36:07;;;;;;;0.00;0.00;;;36.40;40.60;;;;;;4917311;29;20421;-91
2021/08/21 10:38:40;;;;;;;0.00;0.00;;;36.30;40.60;;;;;;4917701;29;20506;-89
2021/08/21 10:41:12;;;;;;;0.10;0.10;;;36.80;41.20;;;;;;4918920;29;20036;-88
2021/08/21 10:43:40;;;;;;;0.10;0.10;;;37.60;40.60;;;;;;4916999;29;20048;-91
2021/08/21 10:46:06;;;;;;;0.10;0.10;;;38.30;40.00;;;;;;4917848;29;20148;-91
2021/08/21 10:48:38;;;;;;;0.00;0.00;;;39.20;39.30;;;;;;4917810;29;20139;-92
2021/08/21 10:51:29;;;;;;;0.10;0.10;;;39.90;37.70;;;;;;4920003;29;20029;-91
2021/08/21 10:53:56;;;;;;;0.10;0.10;;;40.10;37.10;;;;;;4920457;29;20028;-91
2021/08/21 10:56:51;;;;;;;0.00;0.00;;;39.90;37.00;;;;;;4919869;29;20032;-90
2021/08/21 10:59:40;;;;;;;0.10;0.10;;;40.10;36.30;;;;;;4905433;29;20106;-90
2021/08/21 11:02:21;;;;;;;0.10;0.10;;;40.70;36.80;;;;;;4918861;29;20029;-87
2021/08/21 11:04:53;;;;;;;0.10;0.10;;;41.00;35.90;;;;;;4917994;29;20040;-92
2021/08/21 11:07:33;;;;;;;0.10;0.10;;;41.20;36.60;;;;;;4919533;29;20495;-91
2021/08/21 11:10:26;;;;;;;0.10;0.10;;;41.50;35.90;;;;;;4919186;29;20043;-92
2021/08/21 11:12:55;;;;;;;0.10;0.10;;;41.40;35.10;;;;;;4920131;29;20214;-89
2021/08/21 11:18:55;;;;;;;0.10;0.10;;;41.70;35.20;;;;;;4907263;29;20084;-90
2021/08/21 11:21:38;;;;;;;0.00;0.00;;;42.00;35.20;;;;;;4920432;29;20032;-91
2021/08/21 11:24:22;;;;;;;0.10;0.10;;;41.10;35.00;;;;;;4920382;29;20406;-89
2021/08/21 11:26:48;;;;;;;0.10;0.10;;;39.90;35.30;;;;;;4920733;29;20028;-92
2021/08/21 11:29:17;;;;;;;0.10;0.10;;;39.50;36.40;;;;;;4919082;29;20115;-90
2021/08/21 11:32:00;;;;;;;0.00;0.00;;;40.00;36.40;;;;;;4918550;29;20067;-89
2021/08/21 11:34:26;;;;;;;0.00;0.00;;;40.10;35.40;;;;;;4919940;29;20036;-90
2021/08/21 11:37:05;;;;;;;0.00;0.00;;;39.50;35.70;;;;;;4919060;29;20047;-91
2021/08/21 11:39:57;;;;;;;0.00;0.00;;;38.70;36.10;;;;;;4921968;29;20120;-90
2021/08/21 11:42:28;;;;;;;0.00;0.00;;;37.70;36.60;;;;;;4913002;29;20055;-89
2021/08/21 11:44:55;;;;;;;0.00;0.00;;;37.00;37.30;;;;;;4918991;29;20028;-91
2021/08/21 11:47:30;;;;;;;0.00;0.00;;;36.60;37.50;;;;;;4918043;29;20480;-89
2021/08/21 11:49:56;;;;;;;0.00;0.00;;;36.80;38.10;;;;;;4918207;29;20036;-91
2021/08/21 11:52:29;;;;;;;0.00;0.00;;;37.20;37.80;;;;;;4919464;29;20063;-93
2021/08/21 11:54:54;;;;;;;0.00;0.00;;;37.40;37.10;;;;;;4918552;29;20032;-90
2021/08/21 11:57:20;;;;;;;0.00;0.00;;;36.90;37.20;;;;;;4918397;29;20034;-89
2021/08/21 11:59:46;;;;;;;0.00;0.00;;;36.30;37.50;;;;;;4918105;29;20032;-90
2021/08/21 12:02:14;;;;;;;0.00;0.00;;;35.70;38.30;;;;;;4917869;29;20031;-90
2021/08/21 12:04:54;;;;;;;0.00;0.00;;;35.90;39.00;;;;;;4919024;29;20106;-91
2021/08/21 12:07:32;;;;;;;0.00;0.00;;;36.90;38.60;;;;;;4929242;29;20125;-88
2021/08/21 12:09:59;;;;;;;0.00;0.00;;;37.20;37.60;;;;;;4934501;29;20024;-91
2021/08/21 12:12:24;;;;;;;0.00;0.00;;;36.60;37.40;;;;;;4923518;29;20130;-89
2021/08/21 12:14:51;;;;;;;0.00;0.00;;;35.90;37.90;;;;;;4919143;29;20494;-91
2021/08/21 12:17:17;;;;;;;0.10;0.10;;;35.50;38.50;;;;;;4921605;29;20171;-90
2021/08/21 12:19:43;;;;;;;0.10;0.10;;;36.10;38.90;;;;;;4918637;29;20111;-91
2021/08/21 12:22:09;;;;;;;0.00;0.00;;;37.10;38.50;;;;;;4917855;29;20028;-93
2021/08/21 12:24:35;;;;;;;0.00;0.00;;;38.20;37.60;;;;;;4918348;29;20040;-91
2021/08/21 12:27:04;;;;;;;0.10;0.10;;;39.30;37.00;;;;;;4918752;29;20442;-91
2021/08/21 12:29:32;;;;;;;0.10;0.10;;;40.00;36.40;;;;;;4918198;29;20131;-88
2021/08/21 12:32:00;;;;;;;0.03;0.03;;;40.80;35.90;;;;;;4919682;29;20083;-88
2021/08/21 12:34:30;;;;;;;0.00;0.00;;;41.40;35.20;;;;;;4920105;29;20530;-89
2021/08/21 12:37:05;;;;;;;0.03;0.03;;;41.10;34.90;;;;;;4918381;29;20035;-90
2021/08/21 12:39:31;;;;;;;0.10;0.10;;;40.20;35.00;;;;;;4919144;29;20032;-86
2021/08/21 12:41:58;;;;;;;0.00;0.00;;;39.10;35.20;;;;;;4917629;29;20040;-90
2021/08/21 12:44:35;;;;;;;0.00;0.00;;;37.90;35.70;;;;;;4917812;29;20044;-91
2021/08/21 12:47:03;;;;;;;0.00;0.00;;;37.00;36.50;;;;;;4919148;29;20239;-92
2021/08/21 12:49:47;;;;;;;0.00;0.00;;;36.20;37.00;;;;;;4918557;29;20032;-90
2021/08/21 12:52:25;;;;;;;0.00;0.00;;;35.80;37.80;;;;;;4918647;29;20055;-92
2021/08/21 12:54:59;;;;;;;0.00;0.00;;;35.50;37.70;;;;;;4918197;29;20157;-91
2021/08/21 12:57:55;;;;;;;0.00;0.00;;;34.90;37.90;;;;;;4918746;29;20024;-90
2021/08/21 13:00:22;;;;;;;0.00;0.00;;;34.60;38.30;;;;;;4902829;29;20143;-90
2021/08/21 13:02:50;;;;;;;0.00;0.00;;;34.90;38.60;;;;;;4918202;29;20040;-90
2021/08/21 13:05:21;;;;;;;0.00;0.00;;;35.70;38.30;;;;;;4916896;29;20490;-91
2021/08/21 13:08:00;;;;;;;0.00;0.00;;;36.40;37.80;;;;;;4916721;29;20035;-90